Time;durP1;ratioP1;P1;durP2;ratioP2;P2;SDS_P1;SDS_P2;PMS_P1;PMS_P2;Temp;Humidity;BMP_temperature;BMP_pressure;BME280_temperature;BME280_humidity;BME280_pressure;Samples;Min_cycle;Max_cycle;Signal;HPM_P1;HPM_P2
2023/09/22 00:01:39;;;;;;;9.18;5.05;;;;;;;20.54;64.73;94680.75;4166232;28;20049;-68
2023/09/22 00:03:42;;;;;;;7.97;4.70;;;;;;;20.53;64.23;94697.75;4155641;28;20060;-68
2023/09/22 00:05:45;;;;;;;9.93;4.95;;;;;;;20.52;63.96;94685.47;4163032;28;20045;-68
2023/09/22 00:07:48;;;;;;;8.70;4.82;;;;;;;20.52;63.87;94707.59;4157344;28;20133;-67
2023/09/22 00:09:49;;;;;;;11.05;4.90;;;;;;;20.55;63.95;94672.53;4161695;28;20052;-69
2023/09/22 00:11:51;;;;;;;6.65;4.65;;;;;;;20.60;64.06;94671.91;4163343;28;20041;-70
2023/09/22 00:13:53;;;;;;;10.80;4.60;;;;;;;20.62;64.68;94686.59;4162381;28;20068;-68
2023/09/22 00:15:55;;;;;;;11.88;5.32;;;;;;;20.62;64.79;94667.97;4155641;28;20049;-69
2023/09/22 00:17:57;;;;;;;11.50;4.85;;;;;;;20.62;65.85;94659.19;4170402;28;20127;-67
2023/09/22 00:19:59;;;;;;;10.52;5.45;;;;;;;20.57;66.52;94667.84;4161406;28;20124;-68
2023/09/22 00:22:00;;;;;;;10.43;5.70;;;;;;;20.51;67.35;94681.19;4152948;28;20529;-68
2023/09/22 00:24:02;;;;;;;10.23;4.75;;;;;;;20.42;66.76;94676.16;4163365;28;20139;-69
2023/09/22 00:26:04;;;;;;;8.65;5.00;;;;;;;20.40;66.43;94686.19;4163938;28;20751;-69
2023/09/22 00:28:07;;;;;;;14.85;5.50;;;;;;;20.40;66.38;94682.75;4158888;28;20081;-67
2023/09/22 00:30:10;;;;;;;11.65;5.35;;;;;;;20.18;67.98;94669.03;4153361;28;20050;-67
2023/09/22 00:32:12;;;;;;;11.85;6.22;;;;;;;20.17;69.37;94672.72;4174027;28;20087;-68
2023/09/22 00:34:14;;;;;;;12.52;5.63;;;;;;;20.10;68.64;94677.28;4174326;28;20857;-69
2023/09/22 00:36:16;;;;;;;8.93;5.25;;;;;;;19.92;69.64;94686.03;4171314;28;20053;-69
2023/09/22 00:38:18;;;;;;;13.65;5.43;;;;;;;19.61;70.47;94687.66;4169720;28;20091;-67
2023/09/22 00:40:20;;;;;;;10.48;5.68;;;;;;;19.44;71.08;94693.50;4160841;28;20053;-67
2023/09/22 00:42:22;;;;;;;10.68;6.10;;;;;;;19.28;71.48;94687.88;4163832;28;20401;-67
2023/09/22 00:44:24;;;;;;;15.25;6.20;;;;;;;19.20;72.04;94711.00;4161375;28;20090;-68
2023/09/22 00:46:27;;;;;;;9.20;6.00;;;;;;;19.30;72.57;94715.84;4155270;28;20126;-69
2023/09/22 00:48:34;;;;;;;15.18;6.80;;;;;;;19.13;72.77;94686.31;4164023;28;20129;-69
2023/09/22 00:50:38;;;;;;;15.27;7.10;;;;;;;19.14;74.26;94642.00;4152990;28;20554;-69
2023/09/22 00:52:41;;;;;;;15.27;7.38;;;;;;;19.29;74.36;94631.06;4165317;28;20508;-68
2023/09/22 00:54:42;;;;;;;12.45;8.07;;;;;;;19.39;74.72;94631.41;4161573;28;20100;-66
2023/09/22 00:56:45;;;;;;;11.90;8.55;;;;;;;19.47;74.48;94641.78;4153668;28;20100;-69
2023/09/22 00:58:49;;;;;;;14.35;8.73;;;;;;;19.55;73.41;94652.16;4152393;28;20137;-67
2023/09/22 01:00:52;;;;;;;16.83;9.02;;;;;;;19.62;72.70;94674.16;4175115;28;20476;-68
2023/09/22 01:02:55;;;;;;;16.13;8.85;;;;;;;19.69;72.89;94670.66;4157718;28;20368;-68
2023/09/22 01:04:58;;;;;;;15.35;9.45;;;;;;;19.66;72.71;94663.94;4168553;28;20049;-68
2023/09/22 01:06:59;;;;;;;14.68;9.07;;;;;;;19.49;73.65;94663.66;4169739;28;20471;-67
2023/09/22 01:09:09;;;;;;;13.07;8.73;;;;;;;19.15;73.56;94668.34;4163443;28;20152;-67
2023/09/22 01:11:11;;;;;;;12.90;8.98;;;;;;;18.93;75.30;94678.47;4178004;28;20048;-68
2023/09/22 01:13:13;;;;;;;11.27;7.97;;;;;;;18.96;75.13;94669.25;4158245;28;20069;-66
2023/09/22 01:15:16;;;;;;;13.23;8.57;;;;;;;18.98;74.88;94657.41;4154536;28;20057;-67
2023/09/22 01:17:18;;;;;;;14.90;7.95;;;;;;;19.14;75.19;94664.03;4160592;28;20046;-69
2023/09/22 01:19:20;;;;;;;13.60;8.68;;;;;;;19.27;75.75;94663.16;4174618;28;20463;-67
2023/09/22 01:21:34;;;;;;;16.92;8.82;;;;;;;19.34;75.58;94669.25;4167222;28;20041;-67
2023/09/22 01:23:36;;;;;;;11.63;7.93;;;;;;;19.41;75.29;94667.34;4175125;28;20056;-66
2023/09/22 01:25:39;;;;;;;16.05;8.98;;;;;;;19.47;74.48;94673.66;4159935;28;20060;-69
2023/09/22 01:27:41;;;;;;;13.05;7.70;;;;;;;19.49;74.00;94682.25;4166628;28;20050;-68
2023/09/22 01:29:43;;;;;;;14.75;8.25;;;;;;;19.54;73.79;94682.41;4167946;28;20128;-69
2023/09/22 01:31:45;;;;;;;14.27;7.75;;;;;;;19.56;73.19;94683.00;4163402;28;20050;-68
2023/09/22 01:33:47;;;;;;;12.45;7.97;;;;;;;19.60;73.21;94686.84;4160098;28;20042;-68
2023/09/22 01:35:49;;;;;;;12.82;7.57;;;;;;;19.65;73.38;94689.66;4161599;28;20411;-67
2023/09/22 01:37:55;;;;;;;12.00;7.63;;;;;;;19.68;73.33;94674.31;4149612;28;20074;-68
2023/09/22 01:39:58;;;;;;;13.85;7.97;;;;;;;19.68;73.68;94659.22;4161701;28;20107;-68
2023/09/22 01:42:00;;;;;;;13.18;8.40;;;;;;;19.75;73.58;94662.66;4146518;28;20053;-69
2023/09/22 01:44:01;;;;;;;15.57;8.70;;;;;;;19.76;73.78;94674.09;4148313;28;20058;-69
2023/09/22 01:46:03;;;;;;;12.85;8.30;;;;;;;19.78;73.71;94664.88;4161472;28;20080;-69
2023/09/22 01:48:08;;;;;;;13.27;7.88;;;;;;;19.83;73.35;94662.41;4167783;28;20599;-68
2023/09/22 01:50:10;;;;;;;13.20;8.18;;;;;;;19.77;73.79;94643.84;4158552;28;20104;-66
2023/09/22 01:52:12;;;;;;;13.60;7.95;;;;;;;19.74;73.99;94626.47;4153295;28;20373;-69
2023/09/22 01:54:14;;;;;;;15.35;8.55;;;;;;;19.73;74.29;94614.22;4163563;28;20448;-69
2023/09/22 01:56:16;;;;;;;16.20;8.95;;;;;;;19.72;74.13;94607.25;4154526;28;20412;-70
2023/09/22 01:58:17;;;;;;;13.13;8.50;;;;;;;19.65;74.48;94611.81;4163067;28;20259;-67
2023/09/22 02:00:19;;;;;;;12.98;7.82;;;;;;;19.60;74.49;94630.25;4161799;28;20486;-68
2023/09/22 02:02:21;;;;;;;10.70;7.15;;;;;;;19.46;74.95;94634.84;4170214;28;20043;-68
2023/09/22 02:04:23;;;;;;;12.77;7.20;;;;;;;19.45;74.77;94635.88;4159777;28;20455;-68
2023/09/22 02:06:25;;;;;;;13.40;8.55;;;;;;;19.44;74.73;94626.25;4151602;28;20722;-68
2023/09/22 02:08:27;;;;;;;17.30;8.07;;;;;;;19.42;74.55;94630.97;4160633;28;20062;-69
2023/09/22 02:10:29;;;;;;;15.98;8.50;;;;;;;19.32;74.90;94634.13;4154947;28;20067;-66
2023/09/22 02:12:31;;;;;;;15.60;8.25;;;;;;;19.16;75.63;94635.44;4175621;28;20049;-68
2023/09/22 02:14:33;;;;;;;13.90;8.55;;;;;;;19.14;76.63;94629.53;4163419;28;20539;-67
2023/09/22 02:16:35;;;;;;;15.13;8.52;;;;;;;19.02;77.32;94618.78;4160863;28;20136;-67
2023/09/22 02:18:38;;;;;;;13.65;8.30;;;;;;;18.93;77.56;94625.38;4158015;28;20061;-66
2023/09/22 02:20:41;;;;;;;11.73;8.63;;;;;;;18.82;78.19;94632.16;4167198;28;20085;-68
2023/09/22 02:22:47;;;;;;;13.00;8.80;;;;;;;18.62;78.84;94636.69;4155249;28;20443;-67
2023/09/22 02:24:49;;;;;;;12.00;9.02;;;;;;;18.55;78.99;94633.28;4161852;28;20057;-70
2023/09/22 02:26:51;;;;;;;15.32;8.85;;;;;;;18.60;79.45;94634.25;4159310;28;20053;-67
2023/09/22 02:28:53;;;;;;;12.25;7.95;;;;;;;18.68;78.45;94637.72;4161541;28;20067;-69
2023/09/22 02:30:55;;;;;;;14.80;8.38;;;;;;;18.75;78.53;94634.00;4162529;28;20089;-67
2023/09/22 02:32:57;;;;;;;15.80;9.50;;;;;;;18.88;78.53;94621.72;4161180;28;20045;-69
2023/09/22 02:34:59;;;;;;;15.52;8.95;;;;;;;18.96;78.60;94624.13;4164322;28;20045;-67
2023/09/22 02:37:01;;;;;;;12.43;8.45;;;;;;;19.03;78.25;94636.31;4158272;28;20056;-69
2023/09/22 02:39:03;;;;;;;14.80;8.75;;;;;;;19.11;77.71;94640.59;4173761;28;20106;-70
2023/09/22 02:41:06;;;;;;;11.27;8.07;;;;;;;19.17;77.12;94637.06;4172077;28;20153;-68
2023/09/22 02:43:08;;;;;;;13.05;8.57;;;;;;;19.21;76.79;94648.91;4171608;28;20052;-68
2023/09/22 02:45:10;;;;;;;16.95;9.00;;;;;;;19.24;76.58;94647.66;4171800;28;20049;-69
2023/09/22 02:47:13;;;;;;;14.20;8.43;;;;;;;19.27;76.46;94641.09;4156677;28;20132;-70
2023/09/22 02:49:15;;;;;;;13.25;8.45;;;;;;;19.29;76.20;94650.47;4151595;28;20049;-69
2023/09/22 02:51:17;;;;;;;14.05;8.02;;;;;;;19.32;75.92;94650.06;4157855;28;20061;-69
2023/09/22 02:53:18;;;;;;;14.68;8.93;;;;;;;19.37;75.75;94649.41;4161361;28;20380;-68
2023/09/22 02:55:20;;;;;;;13.57;8.57;;;;;;;19.41;75.53;94645.31;4150393;28;20142;-68
2023/09/22 02:57:22;;;;;;;13.60;8.80;;;;;;;19.42;75.16;94661.03;4159225;28;20124;-69
2023/09/22 02:59:24;;;;;;;12.85;8.40;;;;;;;19.41;75.31;94658.59;4162581;28;20513;-68
2023/09/22 03:01:26;;;;;;;22.30;8.55;;;;;;;19.41;75.30;94663.91;4163496;28;20049;-69
2023/09/22 03:03:28;;;;;;;12.27;8.73;;;;;;;19.39;75.41;94661.44;4163462;28;20196;-68
2023/09/22 03:05:30;;;;;;;10.93;8.35;;;;;;;19.42;75.51;94658.38;4140294;28;20081;-70
2023/09/22 03:07:32;;;;;;;15.63;10.02;;;;;;;19.43;75.38;94660.00;4162214;28;20041;-68
2023/09/22 03:09:34;;;;;;;15.38;9.95;;;;;;;19.32;75.72;94671.31;4176823;28;20057;-69
2023/09/22 03:11:36;;;;;;;12.60;8.48;;;;;;;19.28;75.93;94674.63;4162237;28;20056;-69
2023/09/22 03:13:38;;;;;;;14.32;8.57;;;;;;;19.25;76.27;94678.47;4160886;28;20124;-68
2023/09/22 03:15:40;;;;;;;15.02;9.02;;;;;;;19.27;76.04;94671.13;4168996;28;20141;-68
2023/09/22 03:17:42;;;;;;;12.32;7.97;;;;;;;19.31;75.79;94660.88;4167635;28;20049;-68
2023/09/22 03:19:45;;;;;;;12.13;7.93;;;;;;;19.33;74.94;94666.81;4161179;28;20452;-67
2023/09/22 03:21:47;;;;;;;12.75;8.32;;;;;;;19.28;75.11;94669.31;4164412;28;20147;-67
2023/09/22 03:23:53;;;;;;;12.32;8.32;;;;;;;19.26;75.17;94663.38;4161715;28;20048;-67
2023/09/22 03:25:54;;;;;;;17.38;8.20;;;;;;;19.27;75.58;94659.69;4172053;28;20060;-69
2023/09/22 03:27:56;;;;;;;16.63;8.30;;;;;;;19.30;75.56;94667.25;4167956;28;20077;-70
2023/09/22 03:29:58;;;;;;;13.00;8.05;;;;;;;19.33;75.35;94667.59;4170781;28;20057;-67
2023/09/22 03:32:00;;;;;;;15.90;8.60;;;;;;;19.36;75.29;94667.19;4166075;28;20045;-68
2023/09/22 03:34:02;;;;;;;13.35;8.70;;;;;;;19.37;75.42;94663.50;4174786;28;20061;-68
2023/09/22 03:36:05;;;;;;;13.90;7.90;;;;;;;19.34;75.32;94657.81;4166350;28;20045;-69
2023/09/22 03:38:09;;;;;;;11.48;6.97;;;;;;;19.30;75.41;94654.78;4172580;28;20057;-69
2023/09/22 03:40:14;;;;;;;11.85;7.82;;;;;;;19.23;75.20;94654.00;4173098;28;20053;-69
2023/09/22 03:42:18;;;;;;;13.73;7.97;;;;;;;19.23;75.60;94648.69;4171619;28;20049;-68
2023/09/22 03:44:22;;;;;;;12.90;7.95;;;;;;;19.21;75.58;94648.91;4160623;28;20062;-68
2023/09/22 03:46:24;;;;;;;12.27;7.60;;;;;;;19.21;75.43;94643.59;4160826;28;20053;-68
2023/09/22 03:48:26;;;;;;;13.10;7.60;;;;;;;19.19;75.55;94648.31;4158578;28;20476;-68
2023/09/22 03:50:28;;;;;;;12.02;7.80;;;;;;;19.19;75.34;94650.97;4167846;28;20143;-67
2023/09/22 03:52:30;;;;;;;13.05;7.22;;;;;;;19.20;75.23;94649.91;4172993;28;20041;-68
2023/09/22 03:54:31;;;;;;;15.77;8.02;;;;;;;19.19;75.07;94650.16;4163695;28;20045;-68
2023/09/22 03:56:37;;;;;;;15.05;7.57;;;;;;;19.16;75.05;94651.38;4167704;28;20056;-67
2023/09/22 03:58:40;;;;;;;12.50;5.70;;;;;;;19.19;74.44;94652.81;4168429;28;20120;-70
2023/09/22 04:00:43;;;;;;;15.77;6.55;;;;;;;19.19;73.97;94644.84;4151930;28;20537;-69
2023/09/22 04:02:46;;;;;;;14.77;6.38;;;;;;;19.17;73.63;94658.31;4155633;28;20207;-68
2023/09/22 04:04:48;;;;;;;9.77;5.67;;;;;;;19.17;73.38;94644.25;4171507;28;20072;-68
2023/09/22 04:06:50;;;;;;;13.05;6.45;;;;;;;19.14;72.87;94652.63;4155738;28;20045;-70
2023/09/22 04:08:52;;;;;;;13.25;5.93;;;;;;;19.13;72.96;94651.00;4165616;28;20051;-69
2023/09/22 04:10:54;;;;;;;13.85;6.95;;;;;;;19.15;73.10;94655.06;4156833;28;20092;-68
2023/09/22 04:12:56;;;;;;;14.88;6.20;;;;;;;19.13;73.02;94654.47;4156912;28;20046;-69
2023/09/22 04:14:59;;;;;;;9.27;5.75;;;;;;;19.12;72.94;94655.50;4171760;28;20075;-68
2023/09/22 04:17:01;;;;;;;10.45;6.65;;;;;;;19.12;72.81;94659.97;4168588;28;20088;-69
2023/09/22 04:19:03;;;;;;;14.00;5.88;;;;;;;19.06;73.40;94659.00;4159649;28;20041;-69
2023/09/22 04:21:07;;;;;;;14.50;6.50;;;;;;;18.96;73.39;94659.44;4156250;28;20049;-68
2023/09/22 04:23:08;;;;;;;9.98;6.10;;;;;;;18.93;74.36;94659.88;4152114;28;20310;-71
2023/09/22 04:25:11;;;;;;;10.65;5.70;;;;;;;18.88;73.99;94662.34;4150752;28;20052;-69
2023/09/22 04:27:14;;;;;;;10.95;5.75;;;;;;;18.85;74.11;94660.13;4156180;28;20076;-68
2023/09/22 04:29:17;;;;;;;11.70;5.45;;;;;;;18.88;74.20;94661.53;4164088;28;20058;-69
2023/09/22 04:31:24;;;;;;;10.60;5.53;;;;;;;18.92;74.21;94668.06;4163744;28;20122;-68
2023/09/22 04:33:26;;;;;;;12.25;5.13;;;;;;;18.98;74.02;94669.88;4164677;28;20136;-69
2023/09/22 04:35:32;;;;;;;13.27;5.35;;;;;;;19.01;73.13;94667.59;4160430;28;20055;-68
2023/09/22 04:37:34;;;;;;;9.55;4.72;;;;;;;19.05;73.03;94672.47;4158153;28;20049;-70
2023/09/22 04:39:35;;;;;;;10.15;5.40;;;;;;;19.04;72.61;94663.72;4172249;28;20053;-69
2023/09/22 04:41:37;;;;;;;11.80;5.63;;;;;;;19.02;72.85;94671.88;4166545;28;20054;-72
2023/09/22 04:43:39;;;;;;;10.65;7.45;;;;;;;19.00;73.21;94670.47;4166330;28;20127;-68
2023/09/22 04:45:43;;;;;;;10.57;5.82;;;;;;;19.02;73.57;94671.06;4159229;28;20060;-69
2023/09/22 04:47:51;;;;;;;9.70;6.10;;;;;;;19.03;73.72;94664.72;4168576;28;20110;-70
2023/09/22 04:49:52;;;;;;;19.92;7.20;;;;;;;19.04;73.55;94663.72;4166199;28;20049;-69
2023/09/22 04:51:54;;;;;;;12.98;6.18;;;;;;;19.10;73.42;94668.19;4170474;28;20475;-68
2023/09/22 04:53:56;;;;;;;12.35;7.05;;;;;;;19.15;72.93;94665.69;4157973;28;20052;-69
2023/09/22 04:56:04;;;;;;;10.70;6.32;;;;;;;19.19;72.45;94660.78;4162770;28;20045;-71
2023/09/22 04:58:07;;;;;;;12.93;6.25;;;;;;;19.22;72.69;94660.34;4159515;28;20061;-69
2023/09/22 05:00:18;;;;;;;9.90;5.93;;;;;;;19.27;72.42;94665.81;4163474;28;20113;-70
2023/09/22 05:02:20;;;;;;;12.05;6.45;;;;;;;19.31;72.14;94669.66;4163239;28;20480;-72
2023/09/22 05:04:23;;;;;;;12.60;6.88;;;;;;;19.38;72.21;94670.47;4164807;28;20510;-69
2023/09/22 05:06:27;;;;;;;15.75;8.05;;;;;;;19.43;71.67;94667.16;4155986;28;20196;-73
2023/09/22 05:08:31;;;;;;;13.63;6.70;;;;;;;19.45;71.70;94670.41;4155768;28;20137;-70
2023/09/22 05:10:33;;;;;;;10.65;6.43;;;;;;;19.51;71.91;94680.19;4163888;28;20126;-68
2023/09/22 05:12:35;;;;;;;10.63;5.90;;;;;;;19.55;71.51;94676.06;4153666;28;20722;-69
2023/09/22 05:14:37;;;;;;;12.13;5.95;;;;;;;19.60;71.70;94673.56;4162043;28;20172;-69
2023/09/22 05:16:42;;;;;;;9.00;5.60;;;;;;;19.64;70.68;94679.28;4168233;28;20053;-69
2023/09/22 05:18:43;;;;;;;15.88;5.85;;;;;;;19.69;70.28;94676.78;4165481;28;20187;-68
2023/09/22 05:20:47;;;;;;;13.20;6.13;;;;;;;19.71;69.98;94682.72;4158761;28;20049;-70
2023/09/22 05:22:49;;;;;;;10.20;5.53;;;;;;;19.74;69.66;94684.13;4163069;28;20055;-69
2023/09/22 05:24:51;;;;;;;14.10;5.70;;;;;;;19.76;69.80;94687.38;4166549;28;20045;-70
2023/09/22 05:26:53;;;;;;;12.65;6.47;;;;;;;19.65;70.66;94687.00;4153425;28;20045;-68
2023/09/22 05:28:55;;;;;;;12.85;7.13;;;;;;;19.35;71.68;94693.97;4161417;28;20132;-68
2023/09/22 05:30:57;;;;;;;17.40;6.65;;;;;;;18.99;71.68;94708.63;4164468;28;20057;-69
2023/09/22 05:33:00;;;;;;;12.82;6.70;;;;;;;18.50;73.72;94710.00;4162937;28;20049;-73
2023/09/22 05:35:03;;;;;;;12.67;6.87;;;;;;;18.57;73.75;94705.50;4160814;28;20069;-70
2023/09/22 05:37:04;;;;;;;15.60;6.88;;;;;;;18.38;74.34;94710.63;4155046;28;20286;-69
2023/09/22 05:39:08;;;;;;;14.15;6.95;;;;;;;18.53;74.58;94710.41;4164505;28;20053;-70
2023/09/22 05:41:10;;;;;;;12.68;7.03;;;;;;;18.70;74.11;94708.13;4172776;28;20071;-70
2023/09/22 05:43:14;;;;;;;15.75;6.43;;;;;;;18.94;73.74;94709.28;4158211;28;20860;-70
2023/09/22 05:45:16;;;;;;;13.90;6.45;;;;;;;19.08;72.52;94714.53;4152356;28;20133;-71
2023/09/22 05:47:18;;;;;;;14.80;7.05;;;;;;;19.19;72.23;94709.38;4157256;28;20045;-71
2023/09/22 05:49:21;;;;;;;14.77;6.45;;;;;;;19.32;71.75;94707.69;4161980;28;20053;-69
2023/09/22 05:51:24;;;;;;;11.35;7.05;;;;;;;19.47;71.32;94710.88;4150052;28;20144;-70
2023/09/22 05:53:27;;;;;;;13.45;7.03;;;;;;;19.61;70.58;94706.25;4151596;28;20044;-71
2023/09/22 05:55:34;;;;;;;18.58;7.95;;;;;;;19.56;70.39;94708.75;4159960;28;20518;-69
2023/09/22 05:57:36;;;;;;;17.10;8.18;;;;;;;19.63;70.67;94710.34;4153961;28;20136;-69
2023/09/22 05:59:38;;;;;;;22.25;8.93;;;;;;;19.73;70.82;94714.41;4149234;28;20049;-71
2023/09/22 06:01:40;;;;;;;15.60;8.32;;;;;;;19.87;70.40;94710.59;4167155;28;20053;-70
2023/09/22 06:03:42;;;;;;;16.27;8.50;;;;;;;19.94;70.39;94708.72;4153476;28;20045;-70
2023/09/22 06:05:46;;;;;;;23.55;8.13;;;;;;;20.10;70.10;94711.88;4160448;28;20447;-72
2023/09/22 06:07:54;;;;;;;17.42;8.10;;;;;;;20.24;69.37;94703.56;4150743;28;20457;-71
2023/09/22 06:09:56;;;;;;;22.48;8.20;;;;;;;20.40;69.91;94704.81;4156262;28;20057;-70
2023/09/22 06:11:58;;;;;;;24.05;8.80;;;;;;;20.42;69.52;94709.94;4157831;28;20120;-73
2023/09/22 06:14:00;;;;;;;17.05;8.25;;;;;;;20.46;69.41;94711.94;4163613;28;20075;-71
2023/09/22 06:16:04;;;;;;;17.67;9.40;;;;;;;20.55;69.33;94711.66;4174699;28;20101;-72
2023/09/22 06:18:06;;;;;;;18.55;10.63;;;;;;;20.62;69.14;94704.44;4159268;28;20096;-71
2023/09/22 06:20:15;;;;;;;22.98;9.48;;;;;;;20.53;69.49;94713.72;4169770;28;20053;-70
2023/09/22 06:22:17;;;;;;;18.00;9.10;;;;;;;20.42;69.92;94715.25;4160037;28;20475;-70
2023/09/22 06:24:20;;;;;;;17.20;9.70;;;;;;;20.49;70.12;94720.50;4166089;28;20130;-71
2023/09/22 06:26:23;;;;;;;19.63;10.80;;;;;;;20.62;69.91;94715.06;4169180;28;20053;-69
2023/09/22 06:28:25;;;;;;;16.55;9.95;;;;;;;20.56;69.78;94719.41;4174439;28;20049;-71
2023/09/22 06:30:27;;;;;;;14.82;10.13;;;;;;;20.54;69.73;94725.97;4145832;28;20049;-70
2023/09/22 06:32:29;;;;;;;16.17;10.15;;;;;;;20.64;69.22;94723.66;4151208;28;20061;-70
2023/09/22 06:34:31;;;;;;;20.63;9.57;;;;;;;20.66;69.26;94729.56;4151983;28;20050;-70
2023/09/22 06:36:33;;;;;;;18.80;12.07;;;;;;;20.27;70.76;94726.25;4159083;28;20053;-69
2023/09/22 06:38:36;;;;;;;18.63;11.63;;;;;;;20.28;70.98;94730.50;4162432;28;20484;-72
2023/09/22 06:40:39;;;;;;;17.77;12.60;;;;;;;20.29;71.37;94737.47;4173047;28;20052;-72
2023/09/22 06:42:44;;;;;;;21.80;11.70;;;;;;;20.32;70.73;94733.56;4173504;28;20503;-69
2023/09/22 06:44:48;;;;;;;22.88;11.68;;;;;;;20.43;69.79;94735.50;4166525;28;20532;-69
2023/09/22 06:46:52;;;;;;;18.42;13.02;;;;;;;20.46;69.60;94741.19;4174667;28;20042;-72
2023/09/22 06:48:56;;;;;;;22.33;13.23;;;;;;;20.36;69.82;94740.88;4165607;28;20524;-69
2023/09/22 06:50:59;;;;;;;;;;;;;;;20.33;69.88;94743.19;4169795;28;20114;-71
2023/09/22 06:53:01;;;;;;;20.45;13.10;;;;;;;20.24;69.95;94748.78;4168882;28;20000;-70
2023/09/22 06:55:07;;;;;;;22.30;12.50;;;;;;;20.30;69.90;94746.25;4170845;28;20041;-70
2023/09/22 06:57:10;;;;;;;17.35;11.52;;;;;;;20.36;70.22;94750.72;4160326;28;20292;-70
2023/09/22 06:59:13;;;;;;;23.70;12.77;;;;;;;20.39;69.35;94747.59;4161586;28;20058;-69
2023/09/22 07:01:18;;;;;;;20.85;11.90;;;;;;;20.51;68.67;94755.69;4151022;28;20287;-70
2023/09/22 07:03:20;;;;;;;20.65;11.93;;;;;;;20.61;68.85;94750.72;4157973;28;20103;-72
2023/09/22 07:05:22;;;;;;;24.60;13.60;;;;;;;20.83;68.74;94746.59;4162102;28;20053;-69
2023/09/22 07:07:27;;;;;;;17.13;12.55;;;;;;;20.86;67.99;94746.16;4151042;28;20046;-73
2023/09/22 07:09:31;;;;;;;22.55;13.20;;;;;;;20.82;67.16;94749.47;4164347;28;20085;-71
2023/09/22 07:11:39;;;;;;;26.25;14.98;;;;;;;20.84;67.70;94758.88;4153521;28;20049;-71
2023/09/22 07:13:41;;;;;;;22.60;14.30;;;;;;;21.09;67.70;94754.50;4159485;28;20404;-71
2023/09/22 07:15:44;;;;;;;23.88;14.80;;;;;;;21.30;66.71;94748.72;4161356;28;20172;-70
2023/09/22 07:17:47;;;;;;;23.75;14.25;;;;;;;21.52;66.13;94753.59;4158528;28;20049;-68
2023/09/22 07:19:49;;;;;;;30.98;13.43;;;;;;;21.76;65.70;94754.47;4157620;28;20056;-71
2023/09/22 07:21:51;;;;;;;20.27;13.50;;;;;;;21.95;65.26;94753.38;4163966;28;20049;-71
2023/09/22 07:23:58;;;;;;;23.20;12.87;;;;;;;21.94;62.70;94753.59;4157908;28;20103;-73
2023/09/22 07:26:04;;;;;;;17.30;10.88;;;;;;;21.68;62.60;94763.59;4155623;28;20286;-70
2023/09/22 07:28:08;;;;;;;14.93;9.50;;;;;;;21.70;61.56;94755.38;4137791;28;20057;-70
2023/09/22 07:30:10;;;;;;;14.55;9.00;;;;;;;21.61;60.89;94753.03;4151593;28;20045;-71
2023/09/22 07:32:12;;;;;;;19.35;9.35;;;;;;;21.66;60.63;94750.53;4156461;28;20408;-69
2023/09/22 07:34:14;;;;;;;19.53;8.90;;;;;;;21.70;61.05;94753.53;4155460;28;20048;-71
2023/09/22 07:36:16;;;;;;;18.40;8.13;;;;;;;21.74;59.74;94751.22;4179021;28;20293;-69
2023/09/22 07:38:18;;;;;;;15.48;7.40;;;;;;;21.74;60.54;94753.91;4167548;28;20051;-68
2023/09/22 07:40:20;;;;;;;16.00;7.78;;;;;;;21.94;59.23;94740.25;4172177;28;20048;-71
2023/09/22 07:42:23;;;;;;;17.17;5.93;;;;;;;22.05;58.91;94750.16;4167007;28;20049;-70
2023/09/22 07:44:26;;;;;;;16.10;7.25;;;;;;;22.22;58.47;94747.63;4168762;28;20555;-68
2023/09/22 07:46:31;;;;;;;15.20;6.60;;;;;;;22.39;57.49;94751.28;4173369;28;20060;-70
2023/09/22 07:48:34;;;;;;;14.70;6.43;;;;;;;22.18;57.38;94749.94;4149789;28;20140;-69
2023/09/22 07:50:39;;;;;;;13.32;5.43;;;;;;;22.31;57.78;94751.63;4162499;28;20050;-71
2023/09/22 07:52:43;;;;;;;11.68;6.53;;;;;;;22.39;57.88;94745.94;4164065;28;20057;-72
2023/09/22 07:54:46;;;;;;;9.70;5.60;;;;;;;22.21;57.78;94751.34;4163422;28;20049;-70
2023/09/22 07:56:48;;;;;;;19.27;6.72;;;;;;;22.40;57.70;94738.75;4145211;28;20049;-70
2023/09/22 07:58:50;;;;;;;16.77;6.57;;;;;;;22.48;58.13;94741.88;4165281;28;20094;-72
2023/09/22 08:01:15;;;;;;;9.05;5.50;;;;;;;22.51;57.15;94745.94;4163998;28;20054;-70
2023/09/22 08:03:18;;;;;;;16.65;5.90;;;;;;;22.59;56.61;94747.47;4170670;28;20056;-71
2023/09/22 08:05:21;;;;;;;11.63;6.25;;;;;;;22.74;57.27;94750.47;4156484;28;20132;-72
2023/09/22 08:07:23;;;;;;;16.30;6.70;;;;;;;22.93;57.57;94748.47;4163984;28;20056;-73
2023/09/22 08:09:25;;;;;;;16.85;5.75;;;;;;;23.13;57.20;94741.97;4161533;28;20045;-71
2023/09/22 08:11:27;;;;;;;14.63;5.85;;;;;;;23.24;56.17;94743.78;4162530;28;20075;-72
2023/09/22 08:13:29;;;;;;;14.77;6.55;;;;;;;23.38;55.25;94738.97;4168851;28;20092;-71
2023/09/22 08:15:33;;;;;;;16.02;6.07;;;;;;;23.24;54.68;94736.56;4178406;28;20123;-71
2023/09/22 08:17:35;;;;;;;19.05;6.25;;;;;;;23.26;55.15;94742.50;4164956;28;20124;-71
2023/09/22 08:19:37;;;;;;;12.50;5.57;;;;;;;23.39;54.36;94745.94;4163966;28;20518;-72
2023/09/22 08:21:39;;;;;;;10.80;5.40;;;;;;;23.35;54.40;94739.44;4173099;28;20079;-71
2023/09/22 08:23:41;;;;;;;12.70;6.18;;;;;;;23.49;54.58;94746.16;4159460;28;20129;-71
2023/09/22 08:25:55;;;;;;;18.05;5.70;;;;;;;23.56;54.02;94741.47;4164625;28;20045;-71
2023/09/22 08:27:58;;;;;;;15.70;5.93;;;;;;;23.73;53.40;94740.69;4173268;28;20092;-71
2023/09/22 08:30:02;;;;;;;14.80;5.90;;;;;;;23.84;53.70;94740.66;4161381;28;20045;-74
2023/09/22 08:32:05;;;;;;;11.20;5.70;;;;;;;24.00;53.39;94736.38;4164743;28;20072;-72
2023/09/22 08:34:11;;;;;;;11.77;5.72;;;;;;;23.61;53.30;94738.88;4167576;28;20095;-70
2023/09/22 08:36:14;;;;;;;17.30;5.43;;;;;;;23.51;53.75;94736.00;4173941;28;20091;-70
2023/09/22 08:38:16;;;;;;;9.02;4.95;;;;;;;23.43;53.54;94731.06;4175731;28;20279;-70
2023/09/22 08:40:19;;;;;;;12.27;5.68;;;;;;;23.41;54.18;94727.81;4170581;28;20445;-72
2023/09/22 08:42:20;;;;;;;13.00;5.75;;;;;;;23.56;54.02;94725.41;4168268;28;20041;-70
2023/09/22 08:44:24;;;;;;;9.98;5.63;;;;;;;23.82;53.72;94724.03;4171164;28;20055;-72
2023/09/22 08:46:27;;;;;;;12.13;5.97;;;;;;;24.02;53.29;94722.75;4155994;28;20052;-72
2023/09/22 08:48:30;;;;;;;12.70;5.43;;;;;;;23.99;52.98;94718.72;4163809;28;20466;-72
2023/09/22 08:50:32;;;;;;;13.48;5.28;;;;;;;24.16;53.06;94713.38;4168660;28;20049;-70
2023/09/22 08:52:33;;;;;;;13.63;5.43;;;;;;;24.27;52.75;94720.50;4170043;28;20578;-71
2023/09/22 08:54:35;;;;;;;11.93;5.43;;;;;;;24.49;52.85;94709.06;4159690;28;20045;-72
2023/09/22 08:56:37;;;;;;;14.68;5.57;;;;;;;24.67;52.15;94707.97;4173915;28;20054;-74
2023/09/22 08:58:39;;;;;;;13.50;5.22;;;;;;;24.78;52.16;94706.25;4162164;28;20071;-70
2023/09/22 09:00:41;;;;;;;18.65;5.75;;;;;;;24.83;51.42;94707.13;4145933;28;20137;-72
2023/09/22 09:02:46;;;;;;;12.85;5.13;;;;;;;24.93;51.97;94696.56;4161396;28;20698;-70
2023/09/22 09:04:49;;;;;;;18.13;5.43;;;;;;;24.98;50.85;94703.03;4160212;28;20456;-70
2023/09/22 09:06:53;;;;;;;12.95;6.22;;;;;;;24.59;50.91;94698.50;4163660;28;20073;-72
2023/09/22 09:09:12;;;;;;;15.27;5.30;;;;;;;24.48;51.24;94692.19;4170190;28;20128;-72
2023/09/22 09:11:15;;;;;;;13.45;5.72;;;;;;;24.75;51.89;94693.34;4169207;28;20189;-73
2023/09/22 09:13:19;;;;;;;14.30;5.53;;;;;;;25.02;51.05;94683.53;4160761;28;20443;-70
2023/09/22 09:15:27;;;;;;;13.00;5.28;;;;;;;25.12;50.74;94686.34;4159058;28;20057;-71
2023/09/22 09:17:29;;;;;;;15.88;5.40;;;;;;;25.23;50.96;94676.56;4159587;28;20053;-71
2023/09/22 09:19:33;;;;;;;12.75;5.15;;;;;;;25.40;51.26;94681.03;4162666;28;20044;-70
2023/09/22 09:21:34;;;;;;;;;;;;;;;25.61;51.13;94677.47;4168325;28;20053;-70
2023/09/22 09:23:38;;;;;;;9.90;5.15;;;;;;;25.66;50.40;94676.72;4163033;28;19921;-71
2023/09/22 09:25:50;;;;;;;13.88;5.05;;;;;;;25.37;49.58;94668.13;4156361;28;20064;-71
2023/09/22 09:28:02;;;;;;;16.15;5.22;;;;;;;25.20;50.88;94668.22;4163645;28;20401;-72
2023/09/22 09:30:13;;;;;;;14.73;5.63;;;;;;;25.32;51.20;94668.91;4176630;28;20080;-71
2023/09/22 09:32:23;;;;;;;16.05;5.32;;;;;;;25.50;50.84;94657.81;4150721;28;20052;-73